Bishop International Airport
KFNT : rendu visible

Aérodrome :











RETROUVEZ-NOUS SUR...

 
LOGIN :

S'inscrire | Disclaimer

   EN    FR    IT 

 









Légende :    VFR   VFR Marginal   IFR   IFR Intensif   IFR Très Intensif
Visi : 
Plafond : 
>= 8 km
>= 3000ft
5 à 8 km
1000 à 3000 ft
1500m à 5 km
500 à 1000 ft
800 à 1500m
200 à 500 ft
< 800m
< 200 ft
Symboles :   Orages  Brouillard  Fortes neiges  Fortes précipitations  Vent > 20 kt






- Altitude de l'aérodrome : 782 ft
- Code IATA : FNT


KFNT - Bishop International

DERNIER METAR :
  • 250253Z 25003KT 10SM CLR 23/17 A2995 RMK AO2 SLP137 T02280172 53018

METARs EXPIRÉS :
  • 250153Z 22004KT 10SM CLR 26/17 A2993 RMK AO2 SLP129 T02610167
  • 250053Z 23003KT 10SM CLR 28/16 A2991 RMK AO2 SLP122 T02780161

TAF KFNT
Valide du 25 à 00h jusqu'au 26 à 00h UTC


242328Z 2500/2524 23007KT P6SM SCT250
FM250500 VRB03KT P6SM BKN045
FM251400 20005KT P6SM BKN250
FM251700 22013KT P6SM BKN060 OVC150
PROB30 2519/2523 3SM TSRA OVC030CB
FIR KZOB / Amérique du Nord



MET'MAP, la Météo Aéronautique d'un coup d'oeil ! - Copyright ORBIFLY Décembre 2007 - Disclaimer

ORBIFLY MET'MAP TEAM :

Programmation & Développement : Alexandra Zaïnal
Sur une idée originale de : Baudouin d'Aumeries
Assistance à la programmation : Marc-Olivier Méhu
Soutien technique & logistique : Manuel Goepfert

Contact : metmap@orbifly.com




SOURCES & CREDITS :

   NOAA       Earth
Advisory